Portada
METAR-TAF:

METAR-TAF

Aeropuertos :

Aeropuerto Internacional de Chuuk

Weno, Micronesia

latitud: 07-28N, longitud: 151-51E, altitud: 3 m

Observación

El informe se hizo hace 1 hora y 5 minutos, a las 05:50 UTC
Viento 3 kt con dirección variable
Temperatura 30°C
Humedad 84%
Presión 1009 hPa
Visibilidad: 24.1 km
Nubes dispersas a una altura de 1400 ft, Cumulonimbus.
Cielo nuboso a una altura de 12000 ft
Cielo cubierto a una altura de 28000 ft

METAR: PTKK 190550Z VRB03KT 15SM SCT014CB BKN120 OVC280 30/27 A2979 RMK CB N-E S-SW SLP091 8/371 T02950273 10302 20286 57014

Hora: 16:55 (06:55 UTC)

Pronóstico

El informe se hizo hace 1 hora y 23 minutos, a las 05:32 UTC
Pronóstico válido del 19 a las 06 UTC al 20 a las 06 UTC
Viento 6 kt del este
Visibilidad: 10 km
Nubes dispersas a una altura de 1400 ft
Cielo nuboso a una altura de 12000 ft
chaparrones en las proximidades

TAF: PTKK 190532Z 1906/2006 09006KT P6SM VCSH SCT014 BKN120

Observaciones y pronósticos meteorológicos de más de 4000 aeropuertos (mensajes METAR y TAF).

Los puntos amarillos y rojos representan las estaciones disponibles.

Ponga el ratón en el punto deseado para ver el nombre de la estación.

Haga clic para ver las observaciones y los pronósticos meteorológicos.

Para cambiar el mapa : haga clic en los botones verdes con una cruz de color negro para hacer un zoom, en el botón verde con un guión para alejar o en las flechas verdes para mapas adyacentes.


METAR-TAF: